Taihua Star — VRCT4 — position and weather

sailwx.info

Track history (hours):
 
Tides and Currents Weather Stations Pressure Air Temp Water Temp Dewpoint Dewpoint Depression Visibility Wind Speed Wind Dir Waves Ship Positions

Taihua Star

Last reported at 2017-Nov-08 07:30 UTC. Time now 2017-Nov-21 17:39 UTC.
Position S 36°03' E 174°41'.
Warning: this ship's position is 13 days out of date.

Length 162 m; draft 7.8 m.

Type: Cargo ship. MMSI: 477768700.

Date/timePositionNaut miles runAvg speedWind from/ knotsBaromVisibWave heightAir tempDewpointWater temp
2017-Nov-08 07:30S 36°03' E 174°41'510.2
2017-Nov-08 07:01S 36°07' E 174°45'11 8.9
2017-Nov-08 05:45S 36°14' E 174°56'310.1
2017-Nov-08 05:29S 36°16' E 174°58'510.2
2017-Nov-08 05:01S 36°17' E 175°04'30 9.9
2017-Nov-08 02:01S 36°28' E 175°38'  
2017-Nov-04 00:54S 36°29' E 175°10'4 9.6
2017-Nov-04 00:30S 36°31' E 175°07'5 9.5
2017-Nov-04 00:00S 36°35' E 175°02'5 9.4
2017-Nov-03 23:30S 36°38' E 174°58'5 9.5
2017-Nov-03 23:00S 36°41' E 174°54'5 9.3
2017-Nov-03 22:30S 36°45' E 174°50'4 7.9
2017-Nov-03 22:00S 36°49' E 174°50'  
Track history (hours):
 
Tides and Currents Weather Stations Pressure Air Temp Water Temp Dewpoint Dewpoint Depression Visibility Wind Speed Wind Dir Waves Ship Positions

Taihua Star

Last reported at 2017-Nov-08 07:30 UTC. Time now 2017-Nov-21 17:39 UTC.
Position S 36°03' E 174°41'.
Warning: this ship's position is 13 days out of date.

Length 162 m; draft 7.8 m.

Type: Cargo ship. MMSI: 477768700.

Date/timePositionNaut miles runAvg speedWind from/ knotsBaromVisibWave heightAir tempDewpointWater temp
2017-Nov-08 07:30S 36°03' E 174°41'510.2
2017-Nov-08 07:01S 36°07' E 174°45'11 8.9
2017-Nov-08 05:45S 36°14' E 174°56'310.1
2017-Nov-08 05:29S 36°16' E 174°58'510.2
2017-Nov-08 05:01S 36°17' E 175°04'30 9.9
2017-Nov-08 02:01S 36°28' E 175°38'  
2017-Nov-04 00:54S 36°29' E 175°10'4 9.6
2017-Nov-04 00:30S 36°31' E 175°07'5 9.5
2017-Nov-04 00:00S 36°35' E 175°02'5 9.4
2017-Nov-03 23:30S 36°38' E 174°58'5 9.5
2017-Nov-03 23:00S 36°41' E 174°54'5 9.3
2017-Nov-03 22:30S 36°45' E 174°50'4 7.9
2017-Nov-03 22:00S 36°49' E 174°50'  

Dump ship's entire track history